Terminal Aerodrome Forecast
Issued by NWS St Louis, MO

Home | Current Version | Previous Version | Text Only | Print | Product List | Glossary On
Versions: 1 2 3 4 5 6 7 8 9 10 11 12 13 14 15 16 17 18 19 20 21 22 23 24
000
FTUS43 KLSX 151500 AAA
TAFSTL
TAF AMD
KSTL 151501Z 1515/1618 33010G17KT P6SM SKC
     FM151600 34010G17KT P6SM SCT030
     FM160000 VRB04KT P6SM SKC
     FM160500 15005KT P6SM SKC
     FM161700 17017G27KT P6SM BKN250=

USA.gov is the U.S. government's official web portal to all federal, state and local government web resources and services.